sensor_id;sensor_type;location;lat;lon;timestamp;P1;durP1;ratioP1;P2;durP2;ratioP2
47529;SDS011;33272;51.922;7.730;2023-05-07T00:04:55;6.67;;;5.83;;
47529;SDS011;33272;51.922;7.730;2023-05-07T00:07:23;7.10;;;5.83;;
47529;SDS011;33272;51.922;7.730;2023-05-07T00:09:50;6.30;;;5.70;;
47529;SDS011;33272;51.922;7.730;2023-05-07T00:12:17;6.87;;;6.00;;
47529;SDS011;33272;51.922;7.730;2023-05-07T00:14:44;6.37;;;5.67;;
47529;SDS011;33272;51.922;7.730;2023-05-07T00:17:11;6.13;;;5.53;;
47529;SDS011;33272;51.922;7.730;2023-05-07T00:19:39;6.47;;;5.60;;
47529;SDS011;33272;51.922;7.730;2023-05-07T00:22:06;6.27;;;5.20;;
47529;SDS011;33272;51.922;7.730;2023-05-07T00:24:34;7.03;;;5.23;;
47529;SDS011;33272;51.922;7.730;2023-05-07T00:27:01;6.03;;;5.30;;
47529;SDS011;33272;51.922;7.730;2023-05-07T00:29:28;6.50;;;5.77;;
47529;SDS011;33272;51.922;7.730;2023-05-07T00:31:55;7.03;;;5.40;;
47529;SDS011;33272;51.922;7.730;2023-05-07T00:34:22;5.87;;;4.87;;
47529;SDS011;33272;51.922;7.730;2023-05-07T00:36:50;5.30;;;4.80;;
47529;SDS011;33272;51.922;7.730;2023-05-07T00:39:18;6.23;;;5.03;;
47529;SDS011;33272;51.922;7.730;2023-05-07T00:41:45;6.17;;;5.30;;
47529;SDS011;33272;51.922;7.730;2023-05-07T00:44:12;4.77;;;4.33;;
47529;SDS011;33272;51.922;7.730;2023-05-07T00:46:40;6.23;;;5.27;;
47529;SDS011;33272;51.922;7.730;2023-05-07T00:49:07;6.03;;;5.27;;
47529;SDS011;33272;51.922;7.730;2023-05-07T00:51:34;5.47;;;4.80;;
47529;SDS011;33272;51.922;7.730;2023-05-07T00:54:03;5.97;;;4.90;;
47529;SDS011;33272;51.922;7.730;2023-05-07T00:56:30;6.87;;;5.20;;
47529;SDS011;33272;51.922;7.730;2023-05-07T00:58:58;7.57;;;5.00;;
47529;SDS011;33272;51.922;7.730;2023-05-07T01:01:26;5.53;;;5.03;;
47529;SDS011;33272;51.922;7.730;2023-05-07T01:03:53;6.23;;;4.93;;
47529;SDS011;33272;51.922;7.730;2023-05-07T01:06:20;6.13;;;5.07;;
47529;SDS011;33272;51.922;7.730;2023-05-07T01:08:49;5.60;;;5.07;;
47529;SDS011;33272;51.922;7.730;2023-05-07T01:11:19;7.40;;;5.37;;
47529;SDS011;33272;51.922;7.730;2023-05-07T01:13:46;6.37;;;5.60;;
47529;SDS011;33272;51.922;7.730;2023-05-07T01:16:15;5.77;;;5.27;;
47529;SDS011;33272;51.922;7.730;2023-05-07T01:18:42;7.00;;;5.80;;
47529;SDS011;33272;51.922;7.730;2023-05-07T01:21:10;7.10;;;6.40;;
47529;SDS011;33272;51.922;7.730;2023-05-07T01:23:39;7.07;;;6.37;;
47529;SDS011;33272;51.922;7.730;2023-05-07T01:26:07;8.27;;;6.80;;
47529;SDS011;33272;51.922;7.730;2023-05-07T01:28:34;9.73;;;7.43;;
47529;SDS011;33272;51.922;7.730;2023-05-07T01:31:02;7.77;;;6.90;;
47529;SDS011;33272;51.922;7.730;2023-05-07T01:33:31;9.17;;;8.07;;
47529;SDS011;33272;51.922;7.730;2023-05-07T01:36:01;9.07;;;8.10;;
47529;SDS011;33272;51.922;7.730;2023-05-07T01:38:31;10.13;;;9.00;;
47529;SDS011;33272;51.922;7.730;2023-05-07T01:41:00;11.37;;;10.17;;
47529;SDS011;33272;51.922;7.730;2023-05-07T01:43:28;11.23;;;9.67;;
47529;SDS011;33272;51.922;7.730;2023-05-07T01:45:55;12.30;;;9.57;;
47529;SDS011;33272;51.922;7.730;2023-05-07T01:48:24;14.80;;;11.13;;
47529;SDS011;33272;51.922;7.730;2023-05-07T01:50:52;14.03;;;11.03;;
47529;SDS011;33272;51.922;7.730;2023-05-07T01:53:20;14.63;;;11.67;;
47529;SDS011;33272;51.922;7.730;2023-05-07T01:55:47;12.63;;;11.33;;
47529;SDS011;33272;51.922;7.730;2023-05-07T01:58:15;12.93;;;11.60;;
47529;SDS011;33272;51.922;7.730;2023-05-07T02:00:42;13.50;;;12.10;;
47529;SDS011;33272;51.922;7.730;2023-05-07T02:03:10;14.67;;;12.77;;
47529;SDS011;33272;51.922;7.730;2023-05-07T02:05:37;13.87;;;12.47;;
47529;SDS011;33272;51.922;7.730;2023-05-07T02:08:04;14.90;;;12.27;;
47529;SDS011;33272;51.922;7.730;2023-05-07T02:10:31;15.50;;;12.80;;
47529;SDS011;33272;51.922;7.730;2023-05-07T02:12:57;14.20;;;12.70;;
47529;SDS011;33272;51.922;7.730;2023-05-07T02:15:28;19.13;;;13.40;;
47529;SDS011;33272;51.922;7.730;2023-05-07T02:17:58;20.07;;;13.27;;
47529;SDS011;33272;51.922;7.730;2023-05-07T02:20:26;17.10;;;13.43;;
47529;SDS011;33272;51.922;7.730;2023-05-07T02:22:53;14.77;;;13.20;;
47529;SDS011;33272;51.922;7.730;2023-05-07T02:25:20;15.50;;;13.23;;
47529;SDS011;33272;51.922;7.730;2023-05-07T02:27:47;16.53;;;13.80;;
47529;SDS011;33272;51.922;7.730;2023-05-07T02:30:14;15.87;;;13.57;;
47529;SDS011;33272;51.922;7.730;2023-05-07T02:32:43;15.33;;;13.60;;
47529;SDS011;33272;51.922;7.730;2023-05-07T02:35:10;16.97;;;13.93;;
47529;SDS011;33272;51.922;7.730;2023-05-07T02:37:37;16.93;;;13.77;;
47529;SDS011;33272;51.922;7.730;2023-05-07T02:40:05;15.73;;;14.13;;
47529;SDS011;33272;51.922;7.730;2023-05-07T02:42:33;14.33;;;12.80;;
47529;SDS011;33272;51.922;7.730;2023-05-07T02:45:00;19.63;;;14.00;;
47529;SDS011;33272;51.922;7.730;2023-05-07T02:47:27;17.97;;;14.63;;
47529;SDS011;33272;51.922;7.730;2023-05-07T02:49:56;17.17;;;14.17;;
47529;SDS011;33272;51.922;7.730;2023-05-07T02:52:23;16.00;;;14.30;;
47529;SDS011;33272;51.922;7.730;2023-05-07T02:54:50;15.93;;;14.17;;
47529;SDS011;33272;51.922;7.730;2023-05-07T02:57:17;16.83;;;14.33;;
47529;SDS011;33272;51.922;7.730;2023-05-07T02:59:44;18.07;;;15.97;;
47529;SDS011;33272;51.922;7.730;2023-05-07T03:02:11;16.20;;;13.97;;
47529;SDS011;33272;51.922;7.730;2023-05-07T03:04:39;17.30;;;14.97;;
47529;SDS011;33272;51.922;7.730;2023-05-07T03:07:08;17.90;;;15.63;;
47529;SDS011;33272;51.922;7.730;2023-05-07T03:09:35;16.50;;;14.77;;
47529;SDS011;33272;51.922;7.730;2023-05-07T03:12:01;19.53;;;15.73;;
47529;SDS011;33272;51.922;7.730;2023-05-07T03:14:29;17.80;;;15.87;;
47529;SDS011;33272;51.922;7.730;2023-05-07T03:16:56;15.20;;;13.60;;
47529;SDS011;33272;51.922;7.730;2023-05-07T03:19:23;17.10;;;15.30;;
47529;SDS011;33272;51.922;7.730;2023-05-07T03:21:50;16.50;;;14.73;;
47529;SDS011;33272;51.922;7.730;2023-05-07T03:24:18;21.33;;;15.57;;
47529;SDS011;33272;51.922;7.730;2023-05-07T03:26:45;18.27;;;15.07;;
47529;SDS011;33272;51.922;7.730;2023-05-07T03:29:12;17.70;;;14.93;;
47529;SDS011;33272;51.922;7.730;2023-05-07T03:31:39;19.00;;;15.27;;
47529;SDS011;33272;51.922;7.730;2023-05-07T03:34:06;16.90;;;14.90;;
47529;SDS011;33272;51.922;7.730;2023-05-07T03:36:33;18.47;;;15.50;;
47529;SDS011;33272;51.922;7.730;2023-05-07T03:39:00;17.30;;;14.53;;
47529;SDS011;33272;51.922;7.730;2023-05-07T03:41:28;16.77;;;14.80;;
47529;SDS011;33272;51.922;7.730;2023-05-07T03:43:55;16.70;;;14.90;;
47529;SDS011;33272;51.922;7.730;2023-05-07T03:46:22;18.30;;;14.63;;
47529;SDS011;33272;51.922;7.730;2023-05-07T03:48:51;17.97;;;16.07;;
47529;SDS011;33272;51.922;7.730;2023-05-07T03:51:18;21.13;;;15.73;;
47529;SDS011;33272;51.922;7.730;2023-05-07T03:53:45;16.40;;;14.70;;
47529;SDS011;33272;51.922;7.730;2023-05-07T03:56:12;17.83;;;15.23;;
47529;SDS011;33272;51.922;7.730;2023-05-07T03:58:40;17.83;;;15.30;;
47529;SDS011;33272;51.922;7.730;2023-05-07T04:01:07;18.93;;;15.40;;
47529;SDS011;33272;51.922;7.730;2023-05-07T04:03:34;17.70;;;14.93;;
47529;SDS011;33272;51.922;7.730;2023-05-07T04:06:01;20.50;;;15.17;;
47529;SDS011;33272;51.922;7.730;2023-05-07T04:08:29;16.80;;;15.07;;
47529;SDS011;33272;51.922;7.730;2023-05-07T04:11:02;18.70;;;15.70;;
47529;SDS011;33272;51.922;7.730;2023-05-07T04:13:29;17.67;;;15.43;;
47529;SDS011;33272;51.922;7.730;2023-05-07T04:15:58;17.47;;;15.60;;
47529;SDS011;33272;51.922;7.730;2023-05-07T04:18:27;19.17;;;15.47;;
47529;SDS011;33272;51.922;7.730;2023-05-07T04:20:54;17.70;;;15.90;;
47529;SDS011;33272;51.922;7.730;2023-05-07T04:23:21;16.87;;;15.03;;
47529;SDS011;33272;51.922;7.730;2023-05-07T04:25:49;18.10;;;15.20;;
47529;SDS011;33272;51.922;7.730;2023-05-07T04:28:16;18.07;;;16.10;;
47529;SDS011;33272;51.922;7.730;2023-05-07T04:30:44;18.87;;;14.87;;
47529;SDS011;33272;51.922;7.730;2023-05-07T04:33:13;18.50;;;16.50;;
47529;SDS011;33272;51.922;7.730;2023-05-07T04:35:41;17.50;;;15.43;;
47529;SDS011;33272;51.922;7.730;2023-05-07T04:38:08;16.53;;;14.77;;
47529;SDS011;33272;51.922;7.730;2023-05-07T04:40:36;18.10;;;15.37;;
47529;SDS011;33272;51.922;7.730;2023-05-07T04:43:03;18.87;;;15.30;;
47529;SDS011;33272;51.922;7.730;2023-05-07T04:45:32;18.37;;;14.87;;
47529;SDS011;33272;51.922;7.730;2023-05-07T04:47:59;16.20;;;14.47;;
47529;SDS011;33272;51.922;7.730;2023-05-07T04:50:28;20.03;;;15.17;;
47529;SDS011;33272;51.922;7.730;2023-05-07T04:52:56;18.77;;;15.10;;
47529;SDS011;33272;51.922;7.730;2023-05-07T04:55:23;18.50;;;15.33;;
47529;SDS011;33272;51.922;7.730;2023-05-07T04:57:51;18.30;;;15.13;;
47529;SDS011;33272;51.922;7.730;2023-05-07T05:00:18;17.23;;;15.43;;
47529;SDS011;33272;51.922;7.730;2023-05-07T05:02:45;16.77;;;14.53;;
47529;SDS011;33272;51.922;7.730;2023-05-07T05:05:12;17.73;;;14.83;;
47529;SDS011;33272;51.922;7.730;2023-05-07T05:07:41;18.17;;;16.13;;
47529;SDS011;33272;51.922;7.730;2023-05-07T05:10:08;17.47;;;15.30;;
47529;SDS011;33272;51.922;7.730;2023-05-07T05:12:35;17.40;;;15.30;;
47529;SDS011;33272;51.922;7.730;2023-05-07T05:15:03;19.93;;;15.63;;
47529;SDS011;33272;51.922;7.730;2023-05-07T05:17:31;17.97;;;15.57;;
47529;SDS011;33272;51.922;7.730;2023-05-07T05:19:59;18.77;;;16.53;;
47529;SDS011;33272;51.922;7.730;2023-05-07T05:22:26;18.23;;;16.37;;
47529;SDS011;33272;51.922;7.730;2023-05-07T05:24:56;18.03;;;15.23;;
47529;SDS011;33272;51.922;7.730;2023-05-07T05:27:24;19.00;;;15.73;;
47529;SDS011;33272;51.922;7.730;2023-05-07T05:29:51;19.60;;;16.10;;
47529;SDS011;33272;51.922;7.730;2023-05-07T05:32:18;19.30;;;15.60;;
47529;SDS011;33272;51.922;7.730;2023-05-07T05:34:45;17.43;;;15.23;;
47529;SDS011;33272;51.922;7.730;2023-05-07T05:37:12;17.60;;;14.70;;
47529;SDS011;33272;51.922;7.730;2023-05-07T05:39:39;19.70;;;15.07;;
47529;SDS011;33272;51.922;7.730;2023-05-07T05:42:08;16.60;;;14.50;;
47529;SDS011;33272;51.922;7.730;2023-05-07T05:44:34;16.63;;;14.67;;
47529;SDS011;33272;51.922;7.730;2023-05-07T05:47:02;18.30;;;14.67;;
47529;SDS011;33272;51.922;7.730;2023-05-07T05:49:29;18.27;;;14.40;;
47529;SDS011;33272;51.922;7.730;2023-05-07T05:51:56;17.90;;;15.63;;
47529;SDS011;33272;51.922;7.730;2023-05-07T05:54:23;16.77;;;14.37;;
47529;SDS011;33272;51.922;7.730;2023-05-07T05:56:50;15.63;;;13.97;;
47529;SDS011;33272;51.922;7.730;2023-05-07T05:59:19;17.37;;;14.40;;
47529;SDS011;33272;51.922;7.730;2023-05-07T06:01:46;18.23;;;14.00;;
47529;SDS011;33272;51.922;7.730;2023-05-07T06:04:13;17.83;;;14.70;;
47529;SDS011;33272;51.922;7.730;2023-05-07T06:06:40;16.43;;;14.73;;
47529;SDS011;33272;51.922;7.730;2023-05-07T06:09:07;17.73;;;15.20;;
47529;SDS011;33272;51.922;7.730;2023-05-07T06:11:34;17.40;;;14.73;;
47529;SDS011;33272;51.922;7.730;2023-05-07T06:14:01;17.83;;;15.90;;
47529;SDS011;33272;51.922;7.730;2023-05-07T06:16:30;17.10;;;14.50;;
47529;SDS011;33272;51.922;7.730;2023-05-07T06:18:57;18.90;;;14.67;;
47529;SDS011;33272;51.922;7.730;2023-05-07T06:21:24;19.10;;;14.67;;
47529;SDS011;33272;51.922;7.730;2023-05-07T06:23:51;18.47;;;15.57;;
47529;SDS011;33272;51.922;7.730;2023-05-07T06:26:19;17.80;;;15.13;;
47529;SDS011;33272;51.922;7.730;2023-05-07T06:28:46;17.93;;;15.80;;
47529;SDS011;33272;51.922;7.730;2023-05-07T06:31:14;16.53;;;14.73;;
47529;SDS011;33272;51.922;7.730;2023-05-07T06:33:44;18.57;;;14.80;;
47529;SDS011;33272;51.922;7.730;2023-05-07T06:36:11;18.50;;;15.97;;
47529;SDS011;33272;51.922;7.730;2023-05-07T06:38:38;17.90;;;15.97;;
47529;SDS011;33272;51.922;7.730;2023-05-07T06:41:05;18.87;;;15.90;;
47529;SDS011;33272;51.922;7.730;2023-05-07T06:43:33;20.93;;;16.57;;
47529;SDS011;33272;51.922;7.730;2023-05-07T06:46:00;18.43;;;15.03;;
47529;SDS011;33272;51.922;7.730;2023-05-07T06:48:27;19.07;;;15.23;;
47529;SDS011;33272;51.922;7.730;2023-05-07T06:50:55;17.53;;;15.63;;
47529;SDS011;33272;51.922;7.730;2023-05-07T06:53:22;18.80;;;15.80;;
47529;SDS011;33272;51.922;7.730;2023-05-07T06:55:50;18.40;;;15.57;;
47529;SDS011;33272;51.922;7.730;2023-05-07T06:58:18;18.40;;;15.23;;
47529;SDS011;33272;51.922;7.730;2023-05-07T07:00:45;18.70;;;16.20;;
47529;SDS011;33272;51.922;7.730;2023-05-07T07:03:12;20.03;;;17.27;;
47529;SDS011;33272;51.922;7.730;2023-05-07T07:05:39;18.43;;;15.87;;
47529;SDS011;33272;51.922;7.730;2023-05-07T07:08:09;18.77;;;16.23;;
47529;SDS011;33272;51.922;7.730;2023-05-07T07:10:36;16.90;;;15.10;;
47529;SDS011;33272;51.922;7.730;2023-05-07T07:13:03;18.23;;;15.67;;
47529;SDS011;33272;51.922;7.730;2023-05-07T07:15:30;17.27;;;15.17;;
47529;SDS011;33272;51.922;7.730;2023-05-07T07:17:57;19.40;;;16.17;;
47529;SDS011;33272;51.922;7.730;2023-05-07T07:20:24;17.83;;;15.00;;
47529;SDS011;33272;51.922;7.730;2023-05-07T07:22:51;17.00;;;15.07;;
47529;SDS011;33272;51.922;7.730;2023-05-07T07:25:20;20.73;;;16.60;;
47529;SDS011;33272;51.922;7.730;2023-05-07T07:27:47;19.70;;;16.57;;
47529;SDS011;33272;51.922;7.730;2023-05-07T07:30:14;20.93;;;16.33;;
47529;SDS011;33272;51.922;7.730;2023-05-07T07:32:41;20.40;;;15.60;;
47529;SDS011;33272;51.922;7.730;2023-05-07T07:35:08;20.40;;;16.10;;
47529;SDS011;33272;51.922;7.730;2023-05-07T07:37:36;19.23;;;15.80;;
47529;SDS011;33272;51.922;7.730;2023-05-07T07:40:04;21.13;;;17.37;;
47529;SDS011;33272;51.922;7.730;2023-05-07T07:42:34;18.97;;;15.70;;
47529;SDS011;33272;51.922;7.730;2023-05-07T07:45:01;21.60;;;16.53;;
47529;SDS011;33272;51.922;7.730;2023-05-07T07:47:29;19.10;;;15.73;;
47529;SDS011;33272;51.922;7.730;2023-05-07T07:49:56;17.43;;;15.23;;
47529;SDS011;33272;51.922;7.730;2023-05-07T07:52:23;20.93;;;15.67;;
47529;SDS011;33272;51.922;7.730;2023-05-07T07:54:50;17.80;;;15.47;;
47529;SDS011;33272;51.922;7.730;2023-05-07T07:57:17;21.13;;;16.00;;
47529;SDS011;33272;51.922;7.730;2023-05-07T07:59:45;21.53;;;15.67;;
47529;SDS011;33272;51.922;7.730;2023-05-07T08:02:12;17.30;;;15.27;;
47529;SDS011;33272;51.922;7.730;2023-05-07T08:04:39;17.90;;;15.13;;
47529;SDS011;33272;51.922;7.730;2023-05-07T08:07:08;18.97;;;14.57;;
47529;SDS011;33272;51.922;7.730;2023-05-07T08:09:35;18.10;;;15.13;;
47529;SDS011;33272;51.922;7.730;2023-05-07T08:12:03;16.40;;;14.67;;
47529;SDS011;33272;51.922;7.730;2023-05-07T08:14:31;17.40;;;14.60;;
47529;SDS011;33272;51.922;7.730;2023-05-07T08:16:59;18.30;;;15.87;;
47529;SDS011;33272;51.922;7.730;2023-05-07T08:19:26;17.77;;;13.63;;
47529;SDS011;33272;51.922;7.730;2023-05-07T08:21:53;17.30;;;14.13;;
47529;SDS011;33272;51.922;7.730;2023-05-07T08:24:21;19.53;;;15.80;;
47529;SDS011;33272;51.922;7.730;2023-05-07T08:26:48;15.30;;;13.43;;
47529;SDS011;33272;51.922;7.730;2023-05-07T08:29:15;17.13;;;14.47;;
47529;SDS011;33272;51.922;7.730;2023-05-07T08:31:42;17.30;;;14.53;;
47529;SDS011;33272;51.922;7.730;2023-05-07T08:34:11;15.67;;;13.80;;
47529;SDS011;33272;51.922;7.730;2023-05-07T08:36:38;18.17;;;14.90;;
47529;SDS011;33272;51.922;7.730;2023-05-07T08:39:06;16.20;;;14.23;;
47529;SDS011;33272;51.922;7.730;2023-05-07T08:41:34;15.97;;;13.80;;
47529;SDS011;33272;51.922;7.730;2023-05-07T08:44:02;17.73;;;14.07;;
47529;SDS011;33272;51.922;7.730;2023-05-07T08:46:32;16.17;;;14.30;;
47529;SDS011;33272;51.922;7.730;2023-05-07T08:49:00;15.37;;;13.60;;
47529;SDS011;33272;51.922;7.730;2023-05-07T08:51:28;17.27;;;14.03;;
47529;SDS011;33272;51.922;7.730;2023-05-07T08:53:56;16.00;;;13.93;;
47529;SDS011;33272;51.922;7.730;2023-05-07T08:56:23;17.03;;;13.23;;
47529;SDS011;33272;51.922;7.730;2023-05-07T08:58:51;16.97;;;14.83;;
47529;SDS011;33272;51.922;7.730;2023-05-07T09:01:21;15.47;;;13.73;;
47529;SDS011;33272;51.922;7.730;2023-05-07T09:03:49;15.13;;;13.53;;
47529;SDS011;33272;51.922;7.730;2023-05-07T09:06:17;15.40;;;13.20;;
47529;SDS011;33272;51.922;7.730;2023-05-07T09:08:49;18.10;;;13.07;;
47529;SDS011;33272;51.922;7.730;2023-05-07T09:11:21;15.57;;;12.50;;
47529;SDS011;33272;51.922;7.730;2023-05-07T09:13:52;15.13;;;13.13;;
47529;SDS011;33272;51.922;7.730;2023-05-07T09:16:20;16.70;;;13.97;;
47529;SDS011;33272;51.922;7.730;2023-05-07T09:18:50;16.23;;;13.17;;
47529;SDS011;33272;51.922;7.730;2023-05-07T09:21:19;17.30;;;13.67;;
47529;SDS011;33272;51.922;7.730;2023-05-07T09:23:47;16.00;;;13.73;;
47529;SDS011;33272;51.922;7.730;2023-05-07T09:26:17;13.97;;;12.47;;
47529;SDS011;33272;51.922;7.730;2023-05-07T09:28:45;14.23;;;11.97;;
47529;SDS011;33272;51.922;7.730;2023-05-07T09:31:12;14.33;;;12.10;;
47529;SDS011;33272;51.922;7.730;2023-05-07T09:33:39;14.27;;;12.77;;
47529;SDS011;33272;51.922;7.730;2023-05-07T09:36:07;16.70;;;13.60;;
47529;SDS011;33272;51.922;7.730;2023-05-07T09:38:36;15.30;;;13.37;;
47529;SDS011;33272;51.922;7.730;2023-05-07T09:41:06;14.23;;;11.90;;
47529;SDS011;33272;51.922;7.730;2023-05-07T09:43:35;14.73;;;13.10;;
47529;SDS011;33272;51.922;7.730;2023-05-07T09:46:06;15.60;;;12.60;;
47529;SDS011;33272;51.922;7.730;2023-05-07T09:48:37;13.40;;;11.70;;
47529;SDS011;33272;51.922;7.730;2023-05-07T09:51:09;16.37;;;12.87;;
47529;SDS011;33272;51.922;7.730;2023-05-07T09:53:45;14.37;;;11.77;;
47529;SDS011;33272;51.922;7.730;2023-05-07T09:56:14;16.00;;;11.83;;
47529;SDS011;33272;51.922;7.730;2023-05-07T09:58:42;14.00;;;12.40;;
47529;SDS011;33272;51.922;7.730;2023-05-07T10:01:11;14.40;;;12.73;;
47529;SDS011;33272;51.922;7.730;2023-05-07T10:03:39;14.17;;;12.70;;
47529;SDS011;33272;51.922;7.730;2023-05-07T10:06:08;14.23;;;12.63;;
47529;SDS011;33272;51.922;7.730;2023-05-07T10:08:36;14.77;;;12.37;;
47529;SDS011;33272;51.922;7.730;2023-05-07T10:11:03;13.60;;;11.43;;
47529;SDS011;33272;51.922;7.730;2023-05-07T10:13:33;12.17;;;10.87;;
47529;SDS011;33272;51.922;7.730;2023-05-07T10:16:03;13.83;;;12.27;;
47529;SDS011;33272;51.922;7.730;2023-05-07T10:18:31;13.23;;;11.83;;
47529;SDS011;33272;51.922;7.730;2023-05-07T10:21:08;12.93;;;11.57;;
47529;SDS011;33272;51.922;7.730;2023-05-07T10:23:42;16.23;;;12.17;;
47529;SDS011;33272;51.922;7.730;2023-05-07T10:26:15;13.33;;;11.93;;
47529;SDS011;33272;51.922;7.730;2023-05-07T10:28:46;13.70;;;11.63;;
47529;SDS011;33272;51.922;7.730;2023-05-07T10:31:26;12.63;;;11.30;;
47529;SDS011;33272;51.922;7.730;2023-05-07T10:34:21;12.33;;;11.03;;
47529;SDS011;33272;51.922;7.730;2023-05-07T10:36:52;13.27;;;10.83;;
47529;SDS011;33272;51.922;7.730;2023-05-07T10:39:21;11.63;;;10.03;;
47529;SDS011;33272;51.922;7.730;2023-05-07T10:41:48;12.17;;;10.90;;
47529;SDS011;33272;51.922;7.730;2023-05-07T10:44:26;11.70;;;10.57;;
47529;SDS011;33272;51.922;7.730;2023-05-07T10:47:03;11.60;;;10.40;;
47529;SDS011;33272;51.922;7.730;2023-05-07T10:49:35;11.00;;;9.90;;
47529;SDS011;33272;51.922;7.730;2023-05-07T10:52:15;12.07;;;10.67;;
47529;SDS011;33272;51.922;7.730;2023-05-07T10:54:45;10.90;;;9.80;;
47529;SDS011;33272;51.922;7.730;2023-05-07T11:00:10;10.63;;;9.50;;
47529;SDS011;33272;51.922;7.730;2023-05-07T11:03:09;11.27;;;9.97;;
47529;SDS011;33272;51.922;7.730;2023-05-07T11:05:37;10.87;;;9.77;;
47529;SDS011;33272;51.922;7.730;2023-05-07T11:08:04;10.70;;;9.60;;
47529;SDS011;33272;51.922;7.730;2023-05-07T11:10:48;11.33;;;10.23;;
47529;SDS011;33272;51.922;7.730;2023-05-07T11:13:17;10.73;;;9.37;;
47529;SDS011;33272;51.922;7.730;2023-05-07T11:16:11;10.20;;;9.10;;
47529;SDS011;33272;51.922;7.730;2023-05-07T11:18:47;9.80;;;8.80;;
47529;SDS011;33272;51.922;7.730;2023-05-07T11:24:04;9.70;;;8.70;;
47529;SDS011;33272;51.922;7.730;2023-05-07T11:26:41;9.17;;;8.13;;
47529;SDS011;33272;51.922;7.730;2023-05-07T11:29:11;9.73;;;8.73;;
47529;SDS011;33272;51.922;7.730;2023-05-07T11:31:41;10.23;;;8.93;;
47529;SDS011;33272;51.922;7.730;2023-05-07T11:34:08;8.90;;;8.00;;
47529;SDS011;33272;51.922;7.730;2023-05-07T11:36:41;9.00;;;7.60;;
47529;SDS011;33272;51.922;7.730;2023-05-07T11:39:24;10.03;;;8.77;;
47529;SDS011;33272;51.922;7.730;2023-05-07T11:41:54;8.97;;;8.07;;
47529;SDS011;33272;51.922;7.730;2023-05-07T11:44:21;9.53;;;8.60;;
47529;SDS011;33272;51.922;7.730;2023-05-07T11:46:50;8.87;;;7.97;;
47529;SDS011;33272;51.922;7.730;2023-05-07T11:49:17;8.33;;;7.43;;
47529;SDS011;33272;51.922;7.730;2023-05-07T11:51:44;9.20;;;7.90;;
47529;SDS011;33272;51.922;7.730;2023-05-07T11:54:11;8.83;;;7.93;;
47529;SDS011;33272;51.922;7.730;2023-05-07T11:56:43;9.73;;;8.47;;
47529;SDS011;33272;51.922;7.730;2023-05-07T11:59:12;9.13;;;8.17;;
47529;SDS011;33272;51.922;7.730;2023-05-07T12:01:45;8.00;;;7.13;;
47529;SDS011;33272;51.922;7.730;2023-05-07T12:04:16;7.93;;;7.13;;
47529;SDS011;33272;51.922;7.730;2023-05-07T12:06:46;8.47;;;7.40;;
47529;SDS011;33272;51.922;7.730;2023-05-07T12:09:13;8.63;;;7.43;;
47529;SDS011;33272;51.922;7.730;2023-05-07T12:11:40;8.93;;;7.80;;
47529;SDS011;33272;51.922;7.730;2023-05-07T12:14:12;8.27;;;7.30;;
47529;SDS011;33272;51.922;7.730;2023-05-07T12:16:40;9.43;;;8.53;;
47529;SDS011;33272;51.922;7.730;2023-05-07T12:19:08;10.27;;;8.43;;
47529;SDS011;33272;51.922;7.730;2023-05-07T12:21:38;9.90;;;8.90;;
47529;SDS011;33272;51.922;7.730;2023-05-07T12:24:06;9.17;;;7.57;;
47529;SDS011;33272;51.922;7.730;2023-05-07T12:26:37;9.60;;;7.40;;
47529;SDS011;33272;51.922;7.730;2023-05-07T12:29:05;8.90;;;7.07;;
47529;SDS011;33272;51.922;7.730;2023-05-07T12:31:32;8.33;;;7.50;;
47529;SDS011;33272;51.922;7.730;2023-05-07T12:33:59;8.03;;;7.23;;
47529;SDS011;33272;51.922;7.730;2023-05-07T12:36:27;8.90;;;8.00;;
47529;SDS011;33272;51.922;7.730;2023-05-07T12:39:05;10.37;;;8.00;;
47529;SDS011;33272;51.922;7.730;2023-05-07T12:41:35;9.80;;;8.80;;
47529;SDS011;33272;51.922;7.730;2023-05-07T12:44:18;8.50;;;7.57;;
47529;SDS011;33272;51.922;7.730;2023-05-07T12:46:47;8.93;;;8.03;;
47529;SDS011;33272;51.922;7.730;2023-05-07T12:49:14;8.97;;;8.07;;
47529;SDS011;33272;51.922;7.730;2023-05-07T12:51:42;10.70;;;8.53;;
47529;SDS011;33272;51.922;7.730;2023-05-07T12:54:11;8.93;;;8.03;;
47529;SDS011;33272;51.922;7.730;2023-05-07T12:56:39;8.20;;;7.40;;
47529;SDS011;33272;51.922;7.730;2023-05-07T12:59:06;9.40;;;7.50;;
47529;SDS011;33272;51.922;7.730;2023-05-07T13:01:33;8.50;;;7.20;;
47529;SDS011;33272;51.922;7.730;2023-05-07T13:04:01;8.10;;;7.30;;
47529;SDS011;33272;51.922;7.730;2023-05-07T13:06:30;7.77;;;7.00;;
47529;SDS011;33272;51.922;7.730;2023-05-07T13:08:57;11.50;;;6.57;;
47529;SDS011;33272;51.922;7.730;2023-05-07T13:11:25;6.47;;;5.77;;
47529;SDS011;33272;51.922;7.730;2023-05-07T13:13:52;7.83;;;6.80;;
47529;SDS011;33272;51.922;7.730;2023-05-07T13:16:19;7.63;;;6.70;;
47529;SDS011;33272;51.922;7.730;2023-05-07T13:18:46;7.77;;;6.97;;
47529;SDS011;33272;51.922;7.730;2023-05-07T13:21:13;7.93;;;6.63;;
47529;SDS011;33272;51.922;7.730;2023-05-07T13:23:40;9.03;;;7.00;;
47529;SDS011;33272;51.922;7.730;2023-05-07T13:26:07;7.77;;;6.97;;
47529;SDS011;33272;51.922;7.730;2023-05-07T13:28:36;9.97;;;8.50;;
47529;SDS011;33272;51.922;7.730;2023-05-07T13:31:03;8.50;;;7.70;;
47529;SDS011;33272;51.922;7.730;2023-05-07T13:33:30;9.30;;;7.73;;
47529;SDS011;33272;51.922;7.730;2023-05-07T13:35:57;7.80;;;6.83;;
47529;SDS011;33272;51.922;7.730;2023-05-07T13:38:25;7.83;;;7.03;;
47529;SDS011;33272;51.922;7.730;2023-05-07T13:40:52;7.80;;;6.43;;
47529;SDS011;33272;51.922;7.730;2023-05-07T13:43:19;7.40;;;6.60;;
47529;SDS011;33272;51.922;7.730;2023-05-07T13:45:47;7.60;;;6.77;;
47529;SDS011;33272;51.922;7.730;2023-05-07T13:48:14;8.07;;;6.60;;
47529;SDS011;33272;51.922;7.730;2023-05-07T13:50:41;8.07;;;6.73;;
47529;SDS011;33272;51.922;7.730;2023-05-07T13:53:08;6.70;;;6.00;;
47529;SDS011;33272;51.922;7.730;2023-05-07T13:55:35;10.43;;;7.07;;
47529;SDS011;33272;51.922;7.730;2023-05-07T13:58:02;8.30;;;6.63;;
47529;SDS011;33272;51.922;7.730;2023-05-07T14:00:29;6.00;;;5.40;;
47529;SDS011;33272;51.922;7.730;2023-05-07T14:02:58;6.30;;;5.70;;
47529;SDS011;33272;51.922;7.730;2023-05-07T14:05:25;9.50;;;7.10;;
47529;SDS011;33272;51.922;7.730;2023-05-07T14:07:52;7.07;;;6.10;;
47529;SDS011;33272;51.922;7.730;2023-05-07T14:10:20;5.83;;;5.33;;
47529;SDS011;33272;51.922;7.730;2023-05-07T14:12:47;6.97;;;6.27;;
47529;SDS011;33272;51.922;7.730;2023-05-07T14:15:14;6.43;;;5.30;;
47529;SDS011;33272;51.922;7.730;2023-05-07T14:17:42;7.20;;;6.00;;
47529;SDS011;33272;51.922;7.730;2023-05-07T14:20:11;7.07;;;6.17;;
47529;SDS011;33272;51.922;7.730;2023-05-07T14:22:38;8.20;;;5.77;;
47529;SDS011;33272;51.922;7.730;2023-05-07T14:25:06;6.07;;;5.47;;
47529;SDS011;33272;51.922;7.730;2023-05-07T14:27:35;7.73;;;6.33;;
47529;SDS011;33272;51.922;7.730;2023-05-07T14:30:02;6.60;;;5.63;;
47529;SDS011;33272;51.922;7.730;2023-05-07T14:32:30;6.43;;;5.70;;
47529;SDS011;33272;51.922;7.730;2023-05-07T14:34:58;6.80;;;5.37;;
47529;SDS011;33272;51.922;7.730;2023-05-07T14:37:26;7.70;;;6.30;;
47529;SDS011;33272;51.922;7.730;2023-05-07T14:39:53;6.30;;;5.67;;
47529;SDS011;33272;51.922;7.730;2023-05-07T14:42:26;6.67;;;5.60;;
47529;SDS011;33272;51.922;7.730;2023-05-07T14:44:53;6.60;;;5.90;;
47529;SDS011;33272;51.922;7.730;2023-05-07T14:47:20;6.13;;;5.53;;